Filskov, Denmark
Current Conditions -  °F | °C
As of 9:20 AM on Thursday 27 Nov 2014 (Local Time) from EKBI Reporting Station
Clear Clear  
Wind Chill: 29°   Ceiling: Unl
Heat Index: 37°   Visibility: 6mi
Dew Point: 34°   Wind: 15mph
Humidity: 87%   Direction: 110°ESE
Pressure: 30"   Gusts: NA
Location:  55.81°N, 9.02°E
Report Text: EKBI 270820Z AUTO 11013KT 9000NDV NCD 03/01 Q1016
Loading
Personal Weather Stations






























Interactive Weather Map New forecast layout! Learn more

10-Day Weather Forecast

Advertisements
Track Severe Weather on mobile